Time;durP1;ratioP1;P1;durP2;ratioP2;P2;SDS_P1;SDS_P2;PMS_P1;PMS_P2;Temp;Humidity;BMP_temperature;BMP_pressure;BME280_temperature;BME280_humidity;BME280_pressure;Samples;Min_cycle;Max_cycle;Signal;HPM_P1;HPM_P2
2023/08/04 00:00:10;;;;;;;1.38;0.52;;;13.80;99.90;;;13.58;100.00;96688.28;5002279;28;23199;-39
2023/08/04 00:02:39;;;;;;;2.35;0.52;;;13.90;99.90;;;13.56;100.00;96691.84;5001508;28;20037;-37
2023/08/04 00:05:06;;;;;;;0.90;0.47;;;13.80;99.90;;;13.54;100.00;96693.75;5004853;28;20163;-40
2023/08/04 00:07:34;;;;;;;1.23;0.60;;;13.80;99.90;;;13.54;100.00;96699.03;5005604;28;20040;-39
2023/08/04 00:10:00;;;;;;;2.45;0.95;;;13.80;99.90;;;13.49;100.00;96698.47;5008158;28;20041;-39
2023/08/04 00:12:26;;;;;;;0.98;0.60;;;13.80;99.90;;;13.47;100.00;96699.50;5007371;28;20112;-40
2023/08/04 00:14:52;;;;;;;1.45;0.50;;;13.80;99.90;;;13.32;100.00;96678.28;5006020;28;20126;-38
2023/08/04 00:17:17;;;;;;;0.75;0.40;;;13.70;99.90;;;13.39;100.00;96705.28;5004774;28;20033;-37
2023/08/04 00:19:43;;;;;;;1.33;0.60;;;13.70;99.90;;;13.35;100.00;96701.06;5007276;28;20107;-37
2023/08/04 00:22:10;;;;;;;2.17;0.55;;;13.60;99.90;;;13.32;100.00;96699.47;5005594;28;20111;-37
2023/08/04 00:24:35;;;;;;;1.58;0.70;;;13.60;99.90;;;13.30;100.00;96698.69;5000161;28;20030;-37
2023/08/04 00:27:02;;;;;;;0.90;0.50;;;13.60;99.90;;;13.27;100.00;96700.66;5002620;28;20103;-36
2023/08/04 00:29:29;;;;;;;0.55;0.50;;;13.50;99.90;;;13.25;100.00;96707.84;5008238;28;20064;-37
2023/08/04 00:31:55;;;;;;;0.98;0.70;;;13.50;99.90;;;13.21;100.00;96711.59;5004087;28;20025;-37
2023/08/04 00:34:21;;;;;;;1.40;0.70;;;13.50;99.90;;;13.14;100.00;96698.72;5004632;28;20025;-39
2023/08/04 00:36:47;;;;;;;1.25;0.70;;;13.50;99.90;;;13.06;100.00;96687.72;5006406;28;20067;-37
2023/08/04 00:39:17;;;;;;;2.50;0.75;;;13.50;99.90;;;13.15;100.00;96710.16;5009353;28;20770;-37
2023/08/04 00:41:43;;;;;;;0.93;0.50;;;13.40;99.90;;;13.11;100.00;96703.34;5006347;28;20505;-37
2023/08/04 00:44:10;;;;;;;0.88;0.50;;;13.40;99.90;;;12.95;100.00;96683.06;5007996;28;20647;-38
2023/08/04 00:46:36;;;;;;;0.43;0.40;;;13.40;99.90;;;13.09;100.00;96714.03;5001148;28;20559;-37
2023/08/04 00:49:04;;;;;;;2.92;0.90;;;13.30;99.90;;;13.08;100.00;96707.03;5004524;28;20041;-37
2023/08/04 00:51:33;;;;;;;3.20;0.70;;;13.40;99.90;;;13.08;100.00;96717.63;5002402;28;20120;-37
2023/08/04 00:53:59;;;;;;;0.80;0.57;;;13.40;99.90;;;13.08;100.00;96706.16;5006895;28;20217;-37
2023/08/04 00:56:28;;;;;;;1.73;0.80;;;13.40;99.90;;;13.05;100.00;96709.88;5004491;28;20036;-38
2023/08/04 00:58:54;;;;;;;2.15;0.55;;;13.30;99.90;;;13.04;100.00;96717.88;5006352;28;20026;-37
2023/08/04 01:01:19;;;;;;;2.13;0.65;;;13.30;99.90;;;13.03;100.00;96717.03;5005925;28;20040;-37
2023/08/04 01:03:45;;;;;;;1.48;0.73;;;13.30;99.90;;;13.02;100.00;96717.13;5000015;28;20030;-38
2023/08/04 01:06:48;;;;;;;1.85;0.70;;;13.30;99.90;;;13.00;100.00;96711.91;4999420;28;20068;-38
2023/08/04 01:09:51;;;;;;;0.60;0.60;;;13.30;99.90;;;12.99;100.00;96721.66;5019932;28;20017;-37
2023/08/04 01:12:47;;;;;;;1.20;0.60;;;13.30;99.90;;;12.97;100.00;96725.31;5004870;28;20044;-37
2023/08/04 01:15:14;;;;;;;1.35;0.70;;;13.30;99.90;;;12.93;100.00;96726.44;5004225;28;20113;-37
2023/08/04 01:17:40;;;;;;;2.88;0.82;;;13.20;99.90;;;12.75;100.00;96700.09;5006607;28;20048;-38
2023/08/04 01:20:06;;;;;;;0.95;0.68;;;13.20;99.90;;;12.91;100.00;96720.38;5003669;28;20037;-37
2023/08/04 01:22:34;;;;;;;3.22;0.70;;;13.20;99.90;;;12.83;100.00;96707.59;5004209;28;20102;-37
2023/08/04 01:25:01;;;;;;;0.63;0.60;;;13.20;99.90;;;12.88;100.00;96715.25;5004295;28;20029;-37
2023/08/04 01:27:37;;;;;;;2.22;0.70;;;13.20;99.90;;;12.93;100.00;96718.50;5005960;28;20033;-37
2023/08/04 01:30:07;;;;;;;2.00;0.80;;;13.20;99.90;;;12.99;100.00;96715.50;5002737;28;20090;-37
2023/08/04 01:32:33;;;;;;;1.17;0.60;;;13.30;99.90;;;13.05;100.00;96715.16;5003415;28;20051;-37
2023/08/04 01:34:59;;;;;;;1.17;0.60;;;13.30;99.90;;;13.09;100.00;96702.59;5004359;28;20103;-37
2023/08/04 01:37:24;;;;;;;1.92;0.70;;;13.40;99.90;;;13.09;100.00;96703.44;4996532;28;20133;-39
2023/08/04 01:39:50;;;;;;;1.45;0.65;;;13.40;99.90;;;13.08;100.00;96704.41;4996898;28;20036;-37
2023/08/04 01:42:16;;;;;;;1.55;0.80;;;13.40;99.90;;;12.94;100.00;96678.72;5007980;28;20389;-37
2023/08/04 01:44:42;;;;;;;1.20;0.70;;;13.40;99.90;;;13.05;100.00;96696.63;5001460;28;20066;-37
2023/08/04 01:47:08;;;;;;;1.05;0.70;;;13.30;99.90;;;13.03;100.00;96692.34;5003481;28;20045;-37
2023/08/04 01:49:34;;;;;;;1.30;0.77;;;13.30;99.90;;;12.99;100.00;96700.47;5005050;28;20071;-37
2023/08/04 01:52:00;;;;;;;1.17;0.60;;;13.30;99.90;;;13.00;100.00;96696.03;5004145;28;20181;-37
2023/08/04 01:54:26;;;;;;;1.50;0.68;;;13.30;99.90;;;12.95;100.00;96687.50;5008542;28;20115;-37
2023/08/04 01:56:52;;;;;;;1.23;0.60;;;13.30;99.90;;;12.96;100.00;96697.16;5004943;28;20438;-37
2023/08/04 01:59:17;;;;;;;1.02;0.70;;;13.30;99.90;;;12.93;100.00;96695.53;5008298;28;20034;-37
2023/08/04 02:01:43;;;;;;;0.85;0.60;;;13.30;99.90;;;12.94;100.00;96699.06;5004688;28;20572;-37
2023/08/04 02:04:09;;;;;;;1.30;0.68;;;13.20;99.90;;;12.95;100.00;96703.38;5005948;28;20045;-37
2023/08/04 02:06:34;;;;;;;2.90;0.70;;;13.20;99.90;;;12.98;100.00;96706.72;5002810;28;20490;-37
2023/08/04 02:09:00;;;;;;;1.05;0.60;;;13.30;99.90;;;12.94;100.00;96678.72;4998729;28;20040;-37
2023/08/04 02:11:26;;;;;;;2.03;0.70;;;13.30;99.90;;;13.10;100.00;96697.22;5003744;28;20029;-37
2023/08/04 02:13:51;;;;;;;0.75;0.63;;;13.40;99.90;;;13.09;100.00;96674.31;5005563;28;20056;-37
2023/08/04 02:16:17;;;;;;;1.77;0.63;;;13.50;99.90;;;13.29;100.00;96696.97;5004881;28;20037;-37
2023/08/04 02:18:43;;;;;;;3.47;0.70;;;13.60;99.90;;;13.34;100.00;96694.09;5003517;28;20029;-37
2023/08/04 02:21:08;;;;;;;0.70;0.50;;;13.60;99.90;;;13.43;100.00;96700.66;5005078;28;20044;-37
2023/08/04 02:23:34;;;;;;;3.47;0.70;;;13.70;99.90;;;13.44;100.00;96689.09;4999063;28;20044;-37
2023/08/04 02:26:00;;;;;;;3.03;0.73;;;13.80;99.90;;;13.56;100.00;96693.66;4998738;28;20121;-37
2023/08/04 02:28:25;;;;;;;1.27;0.60;;;13.80;99.90;;;13.60;100.00;96694.31;4985079;28;20030;-37
2023/08/04 02:30:51;;;;;;;1.63;0.60;;;13.90;99.90;;;13.61;100.00;96688.94;5003244;28;21032;-37
2023/08/04 02:33:17;;;;;;;2.88;1.10;;;13.90;99.90;;;13.67;100.00;96708.91;5005772;28;20041;-37
2023/08/04 02:35:42;;;;;;;1.27;0.50;;;14.00;99.90;;;13.72;100.00;96697.06;5004107;28;20045;-37
2023/08/04 02:38:08;;;;;;;3.45;0.85;;;14.00;99.90;;;13.78;100.00;96700.31;5004040;28;20192;-37
2023/08/04 02:40:37;;;;;;;1.30;0.63;;;14.10;99.90;;;13.84;100.00;96697.31;5007615;28;20036;-37
2023/08/04 02:43:03;;;;;;;1.92;0.85;;;14.10;99.90;;;13.86;100.00;96698.91;5008726;28;20033;-38
2023/08/04 02:45:28;;;;;;;2.63;0.70;;;14.10;99.90;;;13.89;100.00;96703.16;5006160;28;20030;-37
2023/08/04 02:47:54;;;;;;;0.73;0.63;;;14.20;99.90;;;13.91;100.00;96699.47;5008484;28;20029;-37
2023/08/04 02:50:20;;;;;;;3.40;0.80;;;14.20;99.90;;;13.96;100.00;96695.66;5003918;28;20071;-37
2023/08/04 02:52:45;;;;;;;1.15;0.63;;;14.20;99.90;;;13.97;100.00;96697.38;5008321;28;20025;-37
2023/08/04 02:55:12;;;;;;;2.10;0.70;;;14.30;99.90;;;13.99;100.00;96708.75;5003945;28;20050;-37
2023/08/04 02:57:38;;;;;;;1.35;0.60;;;14.20;99.90;;;13.93;100.00;96681.66;5006920;28;20029;-37
2023/08/04 03:00:07;;;;;;;1.00;0.50;;;14.30;99.90;;;13.89;100.00;96672.22;5005650;28;20120;-37
2023/08/04 03:02:32;;;;;;;1.02;0.60;;;14.30;99.90;;;14.06;100.00;96688.88;5007996;28;20033;-37
2023/08/04 03:04:58;;;;;;;0.55;0.50;;;14.30;99.90;;;14.10;100.00;96691.25;5009342;28;20513;-37
2023/08/04 03:07:25;;;;;;;4.63;0.57;;;14.40;99.90;;;14.15;100.00;96703.34;5007673;28;20477;-37
2023/08/04 03:09:50;;;;;;;1.50;0.50;;;14.50;99.90;;;14.20;100.00;96703.91;5007289;28;20031;-38
2023/08/04 03:12:16;;;;;;;2.45;0.63;;;14.50;99.90;;;14.22;100.00;96699.38;5010146;28;20026;-37
2023/08/04 03:14:42;;;;;;;1.17;0.50;;;14.50;99.90;;;14.26;100.00;96703.53;5004033;28;20157;-37
2023/08/04 03:17:07;;;;;;;2.60;0.90;;;14.50;99.90;;;14.27;100.00;96703.44;5007304;28;20486;-37
2023/08/04 03:19:33;;;;;;;1.20;0.60;;;14.50;99.90;;;14.28;100.00;96698.97;5004216;28;20039;-37
2023/08/04 03:21:59;;;;;;;1.40;0.68;;;14.50;99.90;;;14.29;100.00;96700.69;5007153;28;20033;-38
2023/08/04 03:24:24;;;;;;;1.67;0.60;;;14.60;99.90;;;14.29;100.00;96703.34;5002264;28;20034;-36
2023/08/04 03:26:50;;;;;;;2.45;0.60;;;14.60;99.90;;;14.24;100.00;96698.31;5004239;28;20048;-37
2023/08/04 03:29:16;;;;;;;2.35;0.80;;;14.60;99.90;;;14.28;100.00;96707.81;5000095;28;20033;-37
2023/08/04 03:31:42;;;;;;;2.53;0.80;;;14.60;99.90;;;14.29;100.00;96703.34;5000890;28;20291;-37
2023/08/04 03:34:08;;;;;;;3.10;0.50;;;14.60;99.90;;;14.31;100.00;96707.59;5003312;28;20033;-37
2023/08/04 03:36:33;;;;;;;1.17;0.60;;;14.60;99.90;;;14.35;100.00;96702.94;5001794;28;20037;-37
2023/08/04 03:38:59;;;;;;;2.10;0.55;;;14.60;99.90;;;14.39;100.00;96711.56;5006139;28;20468;-37
2023/08/04 03:41:25;;;;;;;0.80;0.47;;;14.70;99.90;;;14.40;100.00;96700.00;5001535;28;22905;-37
2023/08/04 03:43:51;;;;;;;3.60;0.55;;;14.70;99.90;;;14.43;100.00;96705.13;5004467;28;20064;-37
2023/08/04 03:46:16;;;;;;;0.98;0.40;;;14.70;99.90;;;14.43;100.00;96705.97;5009509;28;20056;-37
2023/08/04 03:48:42;;;;;;;0.68;0.50;;;14.70;99.90;;;14.44;100.00;96706.81;5005357;28;20544;-36
2023/08/04 03:51:08;;;;;;;1.65;0.63;;;14.70;99.90;;;14.24;100.00;96676.25;5005829;28;20025;-36
2023/08/04 03:53:33;;;;;;;1.45;0.60;;;14.70;99.90;;;14.35;100.00;96707.41;5001810;28;20068;-37
2023/08/04 03:55:59;;;;;;;1.60;0.82;;;14.60;99.90;;;14.32;100.00;96711.94;4999512;28;20049;-37
2023/08/04 03:58:25;;;;;;;1.45;0.57;;;14.60;99.90;;;14.26;100.00;96696.41;5008624;28;20064;-37
2023/08/04 04:00:50;;;;;;;0.98;0.60;;;14.60;99.90;;;14.25;100.00;96686.75;5004410;28;20038;-37
2023/08/04 04:03:16;;;;;;;1.75;0.77;;;14.60;99.90;;;14.38;100.00;96704.56;5003715;28;20061;-37
2023/08/04 04:05:42;;;;;;;3.35;0.80;;;14.60;99.90;;;14.40;100.00;96707.97;5003257;28;20041;-37
2023/08/04 04:08:08;;;;;;;1.30;0.80;;;14.70;99.90;;;14.42;100.00;96708.72;5007101;28;20076;-37
2023/08/04 04:10:33;;;;;;;1.80;0.60;;;14.70;99.90;;;14.43;100.00;96710.44;5005823;28;20025;-37
2023/08/04 04:12:59;;;;;;;1.40;0.52;;;14.70;99.90;;;14.46;100.00;96702.25;5006634;28;20138;-37
2023/08/04 04:15:25;;;;;;;1.13;0.60;;;14.80;99.90;;;14.48;100.00;96698.56;5007915;28;20037;-37
2023/08/04 04:17:50;;;;;;;1.65;0.55;;;14.80;99.90;;;14.48;100.00;96700.34;5008656;28;20033;-38
2023/08/04 04:20:16;;;;;;;0.70;0.50;;;14.70;99.90;;;14.49;100.00;96696.75;5005105;28;20564;-37
2023/08/04 04:22:42;;;;;;;0.85;0.50;;;14.80;99.90;;;14.52;100.00;96704.53;4999947;28;20065;-36
2023/08/04 04:25:08;;;;;;;0.75;0.52;;;14.80;99.90;;;14.54;100.00;96705.28;5005835;28;20466;-37
2023/08/04 04:27:33;;;;;;;0.55;0.43;;;14.80;99.90;;;14.56;100.00;96703.38;4999578;28;20116;-36
2023/08/04 04:29:59;;;;;;;1.25;0.40;;;14.90;99.90;;;14.63;100.00;96711.84;5005816;28;20060;-37
2023/08/04 04:32:25;;;;;;;0.98;0.45;;;14.90;99.90;;;14.66;100.00;96720.44;5002905;28;20033;-37
2023/08/04 04:34:50;;;;;;;1.17;0.40;;;14.90;99.90;;;14.69;100.00;96720.25;5008593;28;20033;-37
2023/08/04 04:37:16;;;;;;;1.40;0.70;;;15.00;99.90;;;14.70;100.00;96714.00;5002738;28;20528;-37
2023/08/04 04:39:42;;;;;;;0.70;0.57;;;15.00;99.90;;;14.70;100.00;96716.66;5005595;28;20026;-38
2023/08/04 04:42:08;;;;;;;1.85;0.60;;;15.00;99.90;;;14.71;100.00;96722.78;5005932;28;20509;-37
2023/08/04 04:44:33;;;;;;;0.95;0.50;;;15.00;99.90;;;14.69;100.00;96709.63;5004758;28;20033;-38
2023/08/04 04:46:59;;;;;;;1.58;0.70;;;15.00;99.90;;;14.85;100.00;96730.72;5002265;28;20112;-37
2023/08/04 04:49:25;;;;;;;1.33;0.50;;;15.10;99.90;;;14.85;100.00;96711.28;5007028;28;20521;-38
2023/08/04 04:51:50;;;;;;;0.50;0.50;;;15.20;99.90;;;15.03;100.00;96735.78;5003079;28;20036;-39
2023/08/04 04:54:16;;;;;;;1.95;0.60;;;15.30;99.90;;;15.12;100.00;96731.69;5003590;28;20525;-38
2023/08/04 04:56:42;;;;;;;0.60;0.60;;;15.40;99.90;;;15.18;100.00;96737.44;4996325;28;20079;-36
2023/08/04 04:59:08;;;;;;;0.82;0.50;;;15.40;99.90;;;15.21;100.00;96736.38;5000192;28;20533;-38
2023/08/04 05:01:33;;;;;;;0.77;0.50;;;15.50;99.90;;;15.26;100.00;96737.78;4997984;28;20242;-37
2023/08/04 05:03:59;;;;;;;1.27;0.65;;;15.50;99.90;;;15.26;100.00;96729.81;5001819;28;20472;-36
2023/08/04 05:06:25;;;;;;;1.00;0.73;;;15.60;99.90;;;15.35;100.00;96740.78;4993159;28;20033;-37
2023/08/04 05:08:50;;;;;;;3.60;0.85;;;15.60;99.90;;;15.42;100.00;96748.22;5000727;28;20729;-38
2023/08/04 05:11:16;;;;;;;1.83;0.77;;;15.70;99.90;;;15.50;100.00;96736.25;4995981;28;20617;-37
2023/08/04 05:13:42;;;;;;;2.03;0.93;;;15.80;99.90;;;15.58;100.00;96744.56;5003368;28;20299;-37
2023/08/04 05:16:08;;;;;;;1.85;0.80;;;15.80;99.90;;;15.65;100.00;96737.88;5009138;28;20381;-37
2023/08/04 05:18:34;;;;;;;1.50;0.80;;;15.90;99.90;;;15.77;100.00;96750.38;5011596;28;20037;-37
2023/08/04 05:20:59;;;;;;;2.65;0.98;;;16.00;99.90;;;15.89;100.00;96747.81;5007882;28;20369;-37
2023/08/04 05:23:25;;;;;;;1.35;0.88;;;16.10;99.90;;;15.98;100.00;96753.34;5010734;28;20021;-37
2023/08/04 05:25:51;;;;;;;1.95;0.82;;;16.20;99.90;;;16.05;100.00;96748.47;5008739;28;20065;-38
2023/08/04 05:28:30;;;;;;;2.15;0.75;;;16.30;99.90;;;16.17;100.00;96744.94;5010261;28;20033;-37
2023/08/04 05:31:03;;;;;;;0.98;0.68;;;16.40;99.90;;;16.23;100.00;96749.81;5010155;28;20124;-38
2023/08/04 05:33:31;;;;;;;1.20;0.60;;;16.50;99.90;;;16.28;100.00;96749.50;5008541;28;20025;-38
2023/08/04 05:35:58;;;;;;;1.85;0.70;;;16.50;99.90;;;16.30;100.00;96752.06;5009113;28;20036;-38
2023/08/04 05:38:24;;;;;;;0.70;0.60;;;16.60;99.90;;;16.32;100.00;96756.31;5008697;28;20041;-39
2023/08/04 05:40:50;;;;;;;2.60;0.75;;;16.60;99.90;;;16.36;100.00;96756.94;5011071;28;20585;-38
2023/08/04 05:43:17;;;;;;;1.77;0.75;;;16.60;99.90;;;16.37;100.00;96762.16;5011273;28;20527;-38
2023/08/04 05:45:47;;;;;;;2.75;0.80;;;16.60;99.90;;;16.44;100.00;96762.59;5008087;28;20477;-38
2023/08/04 05:48:12;;;;;;;4.13;0.60;;;16.70;99.90;;;16.51;100.00;96762.97;5011525;28;20029;-38
2023/08/04 05:50:38;;;;;;;1.02;0.77;;;16.70;99.90;;;16.57;100.00;96758.09;5009271;28;20032;-37
2023/08/04 05:53:04;;;;;;;3.75;0.80;;;16.80;99.90;;;16.64;100.00;96761.16;5007438;28;20034;-38
2023/08/04 05:55:29;;;;;;;1.50;0.70;;;16.80;99.90;;;16.65;100.00;96764.66;5010590;28;20044;-37
2023/08/04 05:57:56;;;;;;;0.65;0.57;;;16.90;99.90;;;16.69;100.00;96768.81;5010752;28;20037;-37
2023/08/04 06:00:23;;;;;;;1.30;0.60;;;16.90;99.90;;;16.75;100.00;96765.72;5009125;28;20059;-37
2023/08/04 06:02:48;;;;;;;2.15;0.80;;;17.00;99.90;;;16.81;100.00;96759.94;4999298;28;20030;-38
2023/08/04 06:05:14;;;;;;;1.45;0.60;;;17.10;99.90;;;16.82;100.00;96761.66;5007226;28;20439;-39
2023/08/04 06:07:41;;;;;;;1.65;0.82;;;17.10;99.90;;;16.93;100.00;96771.56;5013320;28;20025;-40
2023/08/04 06:10:07;;;;;;;1.92;0.95;;;17.10;99.90;;;17.00;100.00;96767.50;5011244;28;20071;-40
2023/08/04 06:12:33;;;;;;;3.15;1.13;;;17.30;99.90;;;17.06;100.00;96761.69;5009688;28;20682;-40
2023/08/04 06:14:59;;;;;;;4.82;1.10;;;17.30;99.90;;;17.15;100.00;96766.34;5007193;28;20433;-40
2023/08/04 06:17:25;;;;;;;1.27;0.85;;;17.40;99.90;;;17.23;100.00;96760.47;5011675;28;20056;-39
2023/08/04 06:19:50;;;;;;;2.30;1.35;;;17.40;99.90;;;17.33;100.00;96766.81;5007949;28;20025;-42
2023/08/04 06:22:16;;;;;;;2.92;0.70;;;17.50;99.90;;;17.26;100.00;96760.22;5010926;28;20381;-40
2023/08/04 06:24:42;;;;;;;2.90;0.90;;;17.50;99.90;;;17.28;100.00;96776.97;5012259;28;20079;-38
2023/08/04 06:27:08;;;;;;;2.40;1.30;;;17.50;99.90;;;17.34;100.00;96775.66;5009484;28;20029;-40
2023/08/04 06:29:35;;;;;;;6.13;1.35;;;17.50;99.90;;;17.45;100.00;96777.53;5006357;28;20029;-39
2023/08/04 06:32:01;;;;;;;4.63;1.10;;;17.60;99.90;;;17.61;100.00;96780.75;5026355;28;20429;-40
2023/08/04 06:34:27;;;;;;;2.90;1.08;;;17.80;99.90;;;17.82;100.00;96780.06;5008938;28;20335;-39
2023/08/04 06:36:53;;;;;;;6.30;1.25;;;18.00;99.90;;;17.92;100.00;96781.97;5010174;28;20042;-40
2023/08/04 06:39:18;;;;;;;3.33;1.13;;;18.10;99.90;;;17.87;100.00;96776.16;5010242;28;20026;-39
2023/08/04 06:41:44;;;;;;;2.38;0.90;;;18.20;99.90;;;18.03;100.00;96782.97;5009857;28;20037;-39
2023/08/04 06:44:13;;;;;;;1.33;0.80;;;18.30;99.90;;;17.99;100.00;96785.00;5011537;28;20033;-40
2023/08/04 06:46:38;;;;;;;2.47;0.80;;;18.30;99.90;;;18.19;100.00;96786.13;5011056;28;20033;-39
2023/08/04 06:49:04;;;;;;;1.60;1.00;;;18.40;99.90;;;18.33;100.00;96793.06;5014545;28;20029;-40
2023/08/04 06:51:30;;;;;;;1.42;0.90;;;18.50;99.90;;;18.49;100.00;96788.22;5007680;28;20025;-40
2023/08/04 06:53:55;;;;;;;2.38;0.80;;;18.70;99.90;;;18.59;100.00;96793.72;5011971;28;20113;-39
2023/08/04 06:56:22;;;;;;;1.83;0.90;;;18.80;99.90;;;18.68;100.00;96787.63;5010559;28;20080;-39
2023/08/04 06:58:47;;;;;;;3.45;1.20;;;18.90;99.90;;;18.72;100.00;96793.59;5014134;28;20026;-40
2023/08/04 07:01:14;;;;;;;1.30;0.82;;;18.90;99.90;;;18.77;100.00;96794.06;5006815;28;20067;-40
2023/08/04 07:03:40;;;;;;;2.10;1.00;;;19.00;99.90;;;18.75;100.00;96789.81;5009306;28;20038;-40
2023/08/04 07:06:06;;;;;;;1.92;0.85;;;18.90;99.90;;;18.92;100.00;96793.84;5001170;28;20032;-41
2023/08/04 07:08:31;;;;;;;1.35;0.68;;;19.00;99.90;;;19.00;99.35;96796.72;5004170;28;20037;-41
2023/08/04 07:10:57;;;;;;;1.98;0.65;;;19.10;99.90;;;18.93;95.24;96796.38;5002847;28;20037;-39
2023/08/04 07:13:23;;;;;;;1.27;0.70;;;19.10;99.90;;;19.10;97.76;96799.53;5004662;28;20038;-39
2023/08/04 07:15:58;;;;;;;1.92;0.90;;;19.20;99.90;;;19.18;99.91;96797.91;5007226;28;20037;-40
2023/08/04 07:18:27;;;;;;;1.85;1.05;;;19.30;99.90;;;19.18;98.82;96802.41;5008799;28;20162;-40
2023/08/04 07:20:53;;;;;;;2.42;0.80;;;19.20;99.90;;;19.08;96.87;96803.16;5008946;28;20482;-38
2023/08/04 07:23:18;;;;;;;2.38;0.80;;;19.10;99.90;;;19.05;95.35;96798.06;5011990;28;20030;-39
2023/08/04 07:25:44;;;;;;;2.70;0.80;;;19.10;99.90;;;19.08;94.91;96803.16;5013479;28;20041;-39
2023/08/04 07:28:10;;;;;;;2.92;0.90;;;19.10;99.90;;;19.17;96.80;96801.56;5016434;28;20036;-39
2023/08/04 07:30:39;;;;;;;1.85;0.80;;;19.20;99.90;;;19.26;96.29;96810.66;5012507;28;20047;-39
2023/08/04 07:33:06;;;;;;;0.70;0.60;;;19.30;99.90;;;19.38;98.89;96806.13;5016987;28;20401;-40
2023/08/04 07:35:33;;;;;;;4.78;0.85;;;19.50;99.90;;;19.50;96.48;96801.59;5013196;28;20507;-37
2023/08/04 07:37:58;;;;;;;2.38;0.95;;;19.60;99.90;;;19.52;95.16;96811.19;5015261;28;20037;-38
2023/08/04 07:40:24;;;;;;;2.47;1.00;;;19.70;99.90;;;19.59;93.83;96809.72;5015958;28;20037;-37
2023/08/04 07:42:50;;;;;;;2.30;0.60;;;19.70;99.90;;;19.72;94.37;96819.38;5012879;28;20065;-38
2023/08/04 07:45:16;;;;;;;2.08;0.80;;;19.80;99.90;;;19.82;91.12;96823.88;5012373;28;21366;-38
2023/08/04 07:47:41;;;;;;;1.83;0.80;;;19.90;99.90;;;19.93;91.21;96819.47;5015026;28;20033;-37
2023/08/04 07:50:07;;;;;;;1.20;0.80;;;20.10;99.90;;;19.98;89.86;96809.22;4999280;28;20026;-38
2023/08/04 07:52:33;;;;;;;2.42;0.90;;;20.20;99.90;;;19.95;90.30;96796.94;5006792;28;20040;-39
2023/08/04 07:54:59;;;;;;;4.32;0.90;;;20.30;99.90;;;20.14;83.93;96827.50;5006797;28;20033;-38
2023/08/04 07:57:24;;;;;;;4.35;1.00;;;20.40;99.90;;;20.35;88.70;96827.47;5011986;28;20064;-38
2023/08/04 07:59:50;;;;;;;4.03;0.90;;;20.50;99.90;;;20.57;92.29;96823.81;5012203;28;20133;-40
2023/08/04 08:02:16;;;;;;;2.25;1.00;;;20.70;99.90;;;20.67;84.32;96827.41;5015339;28;20037;-38
2023/08/04 08:04:42;;;;;;;4.82;1.30;;;20.90;99.90;;;20.62;83.48;96826.13;5011614;28;20655;-39
2023/08/04 08:07:08;;;;;;;3.33;0.95;;;20.90;99.90;;;20.71;84.77;96826.19;5012368;28;20041;-41
2023/08/04 08:09:33;;;;;;;3.28;0.80;;;21.00;99.90;;;20.84;85.09;96827.78;5013385;28;20666;-38
2023/08/04 08:11:59;;;;;;;3.15;1.05;;;21.00;99.90;;;21.02;84.51;96825.31;5005548;28;20826;-40
2023/08/04 08:14:25;;;;;;;4.13;1.00;;;21.10;99.90;;;21.13;90.25;96826.06;5015534;28;20033;-39
2023/08/04 08:16:51;;;;;;;2.60;0.73;;;21.30;99.90;;;21.13;87.75;96817.16;5012979;28;20033;-38
2023/08/04 08:19:17;;;;;;;2.58;0.80;;;21.30;99.90;;;21.19;88.53;96821.13;5014100;28;20021;-40
2023/08/04 08:21:42;;;;;;;1.92;0.75;;;21.30;99.90;;;21.04;85.11;96818.81;5011820;28;20048;-38
2023/08/04 08:24:09;;;;;;;3.60;1.10;;;21.30;99.90;;;20.72;85.16;96818.97;5013579;28;20105;-38
2023/08/04 08:26:35;;;;;;;1.35;0.90;;;21.00;99.90;;;20.62;87.22;96812.72;5009610;28;20048;-39
2023/08/04 08:29:04;;;;;;;2.35;0.95;;;20.80;99.90;;;20.33;85.54;96808.91;5015588;28;20037;-38
2023/08/04 08:31:30;;;;;;;2.08;0.85;;;20.60;99.90;;;20.10;86.58;96813.53;5013245;28;20025;-40
2023/08/04 08:33:56;;;;;;;1.90;0.80;;;20.30;99.90;;;19.89;88.76;96805.50;5008640;28;20040;-41
2023/08/04 08:36:21;;;;;;;3.38;1.02;;;20.10;99.90;;;19.79;90.42;96802.75;5013065;28;20079;-38
2023/08/04 08:38:47;;;;;;;2.25;1.10;;;20.00;99.90;;;19.97;92.53;96810.19;5010840;28;20034;-38
2023/08/04 08:41:13;;;;;;;2.90;1.15;;;20.00;99.90;;;20.13;88.71;96813.25;5012314;28;20048;-38
2023/08/04 08:43:40;;;;;;;2.95;0.80;;;20.20;99.90;;;20.22;91.08;96814.31;5014343;28;20032;-39
2023/08/04 08:46:07;;;;;;;2.92;1.00;;;20.30;99.90;;;20.44;97.55;96809.78;5013279;28;20033;-39
2023/08/04 08:48:37;;;;;;;7.13;1.30;;;20.50;99.90;;;20.52;82.60;96820.69;5013766;28;20270;-38
2023/08/04 08:51:12;;;;;;;2.05;0.90;;;20.80;99.90;;;20.62;84.38;96821.63;5011073;28;20036;-40
2023/08/04 08:53:39;;;;;;;2.60;1.10;;;20.80;99.90;;;20.65;85.35;96824.03;5007735;28;20021;-38
2023/08/04 08:56:08;;;;;;;3.60;0.90;;;20.90;99.90;;;20.66;86.69;96822.22;5008374;28;20061;-39
2023/08/04 08:58:34;;;;;;;2.88;1.17;;;20.80;99.90;;;20.61;83.21;96827.97;5009976;28;20037;-38
2023/08/04 09:01:00;;;;;;;2.15;0.90;;;20.90;99.90;;;20.79;86.19;96828.19;5012040;28;20520;-39
2023/08/04 09:03:27;;;;;;;3.40;1.10;;;21.10;99.90;;;20.88;81.40;96815.81;5012373;28;20057;-39
2023/08/04 09:05:53;;;;;;;2.30;0.90;;;21.30;99.90;;;21.27;83.29;96837.41;5011943;28;20033;-39
2023/08/04 09:08:19;;;;;;;2.03;1.10;;;21.50;99.90;;;21.32;77.25;96827.09;5009901;28;20040;-38
2023/08/04 09:10:47;;;;;;;1.30;0.70;;;21.60;99.90;;;21.43;78.16;96832.34;5010336;28;20032;-38
2023/08/04 09:13:13;;;;;;;2.28;1.10;;;21.60;99.90;;;21.43;80.11;96828.81;5009800;28;20025;-39
2023/08/04 09:15:49;;;;;;;4.88;1.10;;;21.70;99.90;;;21.31;81.64;96828.09;5009378;28;20117;-39
2023/08/04 09:18:30;;;;;;;2.33;1.10;;;21.60;99.90;;;21.17;83.04;96821.25;5006222;28;20059;-39
2023/08/04 09:21:13;;;;;;;4.47;0.80;;;21.40;99.90;;;20.89;82.29;96818.38;5005133;28;20033;-40
2023/08/04 09:23:47;;;;;;;2.15;0.98;;;21.30;99.90;;;20.62;84.01;96826.13;5006975;28;20061;-40
2023/08/04 09:26:13;;;;;;;1.88;0.77;;;21.00;99.90;;;20.43;84.51;96822.34;5007825;28;20033;-40
2023/08/04 09:28:39;;;;;;;3.70;0.80;;;20.70;99.90;;;20.36;85.63;96822.00;5008963;28;20485;-40
2023/08/04 09:31:07;;;;;;;4.75;0.90;;;20.60;99.90;;;20.31;91.12;96826.06;5008700;28;20017;-40
2023/08/04 09:33:41;;;;;;;3.90;0.88;;;20.50;99.90;;;20.20;89.35;96822.47;4998015;28;20638;-39
2023/08/04 09:36:10;;;;;;;1.33;0.70;;;20.40;99.90;;;20.12;90.32;96824.97;5008691;28;20111;-40
2023/08/04 09:38:38;;;;;;;0.82;0.52;;;20.30;99.90;;;20.07;91.45;96824.50;5004945;28;20064;-39
2023/08/04 09:41:13;;;;;;;0.90;0.60;;;20.20;99.90;;;20.05;92.42;96821.09;5015657;28;20154;-39
2023/08/04 09:43:49;;;;;;;2.15;0.63;;;20.20;99.90;;;20.08;94.40;96820.84;5016510;28;20436;-40
2023/08/04 09:46:19;;;;;;;1.33;0.70;;;20.20;99.90;;;20.14;92.58;96816.81;5016139;28;20665;-40
2023/08/04 09:48:44;;;;;;;1.13;0.60;;;20.30;99.90;;;20.15;92.23;96819.34;5015143;28;20108;-41
2023/08/04 09:51:19;;;;;;;1.52;0.80;;;20.30;99.90;;;20.17;94.44;96816.53;5014108;28;20879;-40
2023/08/04 09:53:48;;;;;;;3.97;1.20;;;20.30;99.90;;;20.12;96.29;96818.75;5011642;28;20053;-38
2023/08/04 09:56:16;;;;;;;1.20;0.80;;;20.20;99.90;;;20.17;97.03;96811.16;5011648;28;20041;-40
2023/08/04 09:58:42;;;;;;;1.80;0.80;;;20.20;99.90;;;20.12;95.09;96808.06;5015884;28;20115;-39
2023/08/04 10:01:08;;;;;;;1.67;0.70;;;20.20;99.90;;;20.12;94.84;96802.72;5017515;28;20379;-38
2023/08/04 10:03:41;;;;;;;3.35;1.17;;;20.20;99.90;;;20.04;96.14;96806.00;5013862;28;20122;-38
2023/08/04 10:06:07;;;;;;;2.50;0.80;;;20.20;99.90;;;19.99;98.54;96809.09;5014042;28;20033;-41
2023/08/04 10:08:39;;;;;;;5.32;0.80;;;20.10;99.90;;;19.96;98.68;96803.16;5007782;28;20036;-39
2023/08/04 10:11:06;;;;;;;1.33;0.80;;;20.10;99.90;;;19.90;100.00;96809.00;5006233;28;20025;-39
2023/08/04 10:13:40;;;;;;;3.45;1.45;;;20.00;99.90;;;19.83;100.00;96800.66;5013615;28;20034;-39